sensor_id;sensor_type;location;lat;lon;timestamp;pressure;altitude;pressure_sealevel;temperature;humidity
66703;BME280;60933;46.398;-63.798;2023-05-23T00:01:41;102652.06;;;7.41;54.29
66703;BME280;60933;46.398;-63.798;2023-05-23T00:04:08;102656.22;;;7.36;54.66
66703;BME280;60933;46.398;-63.798;2023-05-23T00:06:34;102650.03;;;7.25;54.77
66703;BME280;60933;46.398;-63.798;2023-05-23T00:09:01;102672.13;;;7.18;54.70
66703;BME280;60933;46.398;-63.798;2023-05-23T00:11:27;102668.66;;;7.15;55.66
66703;BME280;60933;46.398;-63.798;2023-05-23T00:13:57;102660.75;;;7.05;55.73
66703;BME280;60933;46.398;-63.798;2023-05-23T00:16:25;102673.44;;;6.97;55.39
66703;BME280;60933;46.398;-63.798;2023-05-23T00:18:51;102666.44;;;6.90;56.29
66703;BME280;60933;46.398;-63.798;2023-05-23T00:21:18;102673.13;;;6.84;57.05
66703;BME280;60933;46.398;-63.798;2023-05-23T00:23:44;102680.78;;;6.80;56.94
66703;BME280;60933;46.398;-63.798;2023-05-23T00:26:10;102678.06;;;6.74;57.52
66703;BME280;60933;46.398;-63.798;2023-05-23T00:28:37;102678.81;;;6.69;57.80
66703;BME280;60933;46.398;-63.798;2023-05-23T00:31:03;102684.66;;;6.63;57.97
66703;BME280;60933;46.398;-63.798;2023-05-23T00:33:30;102683.53;;;6.52;57.01
66703;BME280;60933;46.398;-63.798;2023-05-23T00:35:59;102690.16;;;6.42;56.67
66703;BME280;60933;46.398;-63.798;2023-05-23T00:38:25;102695.00;;;6.29;56.98
66703;BME280;60933;46.398;-63.798;2023-05-23T00:40:53;102702.66;;;6.28;59.17
66703;BME280;60933;46.398;-63.798;2023-05-23T00:43:19;102704.22;;;6.23;59.03
66703;BME280;60933;46.398;-63.798;2023-05-23T00:45:47;102709.09;;;6.12;57.82
66703;BME280;60933;46.398;-63.798;2023-05-23T00:48:14;102706.06;;;5.95;57.89
66703;BME280;60933;46.398;-63.798;2023-05-23T00:50:41;102710.28;;;5.93;59.42
66703;BME280;60933;46.398;-63.798;2023-05-23T00:53:07;102714.47;;;5.89;60.54
66703;BME280;60933;46.398;-63.798;2023-05-23T00:55:33;102712.53;;;5.80;59.65
66703;BME280;60933;46.398;-63.798;2023-05-23T00:57:59;102714.09;;;5.75;60.38
66703;BME280;60933;46.398;-63.798;2023-05-23T01:00:26;102719.97;;;5.71;61.74
66703;BME280;60933;46.398;-63.798;2023-05-23T01:02:52;102714.69;;;5.65;61.83
66703;BME280;60933;46.398;-63.798;2023-05-23T01:05:19;102710.25;;;5.59;62.26
66703;BME280;60933;46.398;-63.798;2023-05-23T01:07:50;102720.31;;;5.51;62.63
66703;BME280;60933;46.398;-63.798;2023-05-23T01:10:22;102711.56;;;5.45;62.91
66703;BME280;60933;46.398;-63.798;2023-05-23T01:15:59;102724.84;;;5.31;62.81
66703;BME280;60933;46.398;-63.798;2023-05-23T01:18:31;102729.69;;;5.22;62.19
66703;BME280;60933;46.398;-63.798;2023-05-23T01:21:02;102732.09;;;5.16;62.50
66703;BME280;60933;46.398;-63.798;2023-05-23T01:29:44;102720.19;;;4.89;62.53
66703;BME280;60933;46.398;-63.798;2023-05-23T01:32:13;102722.53;;;4.81;62.37
66703;BME280;60933;46.398;-63.798;2023-05-23T01:34:40;102717.91;;;4.71;61.72
66703;BME280;60933;46.398;-63.798;2023-05-23T01:37:11;102723.78;;;4.67;62.50
66703;BME280;60933;46.398;-63.798;2023-05-23T01:39:39;102726.97;;;4.59;62.97
66703;BME280;60933;46.398;-63.798;2023-05-23T01:42:05;102719.88;;;4.52;62.47
66703;BME280;60933;46.398;-63.798;2023-05-23T01:44:33;102721.19;;;4.39;62.06
66703;BME280;60933;46.398;-63.798;2023-05-23T01:47:01;102722.78;;;4.36;62.66
66703;BME280;60933;46.398;-63.798;2023-05-23T01:49:28;102715.81;;;4.32;63.40
66703;BME280;60933;46.398;-63.798;2023-05-23T01:51:55;102717.38;;;4.26;63.95
66703;BME280;60933;46.398;-63.798;2023-05-23T01:54:22;102719.78;;;4.22;63.96
66703;BME280;60933;46.398;-63.798;2023-05-23T01:56:49;102714.34;;;4.12;64.39
66703;BME280;60933;46.398;-63.798;2023-05-23T01:59:15;102726.09;;;4.07;64.15
66703;BME280;60933;46.398;-63.798;2023-05-23T02:01:42;102718.94;;;3.97;63.47
66703;BME280;60933;46.398;-63.798;2023-05-23T02:04:08;102723.06;;;3.93;64.57
66703;BME280;60933;46.398;-63.798;2023-05-23T02:06:34;102724.59;;;3.88;65.19
66703;BME280;60933;46.398;-63.798;2023-05-23T02:09:00;102719.28;;;3.82;65.23
66703;BME280;60933;46.398;-63.798;2023-05-23T02:11:26;102721.72;;;3.79;65.62
66703;BME280;60933;46.398;-63.798;2023-05-23T02:13:52;102729.19;;;3.73;65.60
66703;BME280;60933;46.398;-63.798;2023-05-23T02:16:18;102722.09;;;3.66;65.55
66703;BME280;60933;46.398;-63.798;2023-05-23T02:18:45;102726.88;;;3.56;64.77
66703;BME280;60933;46.398;-63.798;2023-05-23T02:21:11;102722.25;;;3.46;64.97
66703;BME280;60933;46.398;-63.798;2023-05-23T02:23:37;102723.78;;;3.41;65.11
66703;BME280;60933;46.398;-63.798;2023-05-23T02:26:03;102728.75;;;3.38;66.36
66703;BME280;60933;46.398;-63.798;2023-05-23T02:28:29;102726.06;;;3.33;66.27
66703;BME280;60933;46.398;-63.798;2023-05-23T02:30:55;102730.97;;;3.28;66.79
66703;BME280;60933;46.398;-63.798;2023-05-23T02:33:21;102730.72;;;3.22;66.85
66703;BME280;60933;46.398;-63.798;2023-05-23T02:35:47;102729.66;;;3.15;66.40
66703;BME280;60933;46.398;-63.798;2023-05-23T02:38:16;102732.81;;;3.10;66.73
66703;BME280;60933;46.398;-63.798;2023-05-23T02:40:42;102735.16;;;3.04;66.88
66703;BME280;60933;46.398;-63.798;2023-05-23T02:43:08;102739.94;;;2.96;66.81
66703;BME280;60933;46.398;-63.798;2023-05-23T02:45:34;102744.75;;;2.88;66.39
66703;BME280;60933;46.398;-63.798;2023-05-23T02:48:00;102754.72;;;2.82;66.59
66703;BME280;60933;46.398;-63.798;2023-05-23T02:50:26;102748.44;;;2.74;66.22
66703;BME280;60933;46.398;-63.798;2023-05-23T02:52:52;102750.91;;;2.72;66.82
66703;BME280;60933;46.398;-63.798;2023-05-23T02:55:19;102741.19;;;2.62;66.47
66703;BME280;60933;46.398;-63.798;2023-05-23T02:57:45;102749.63;;;2.61;65.99
66703;BME280;60933;46.398;-63.798;2023-05-23T03:00:11;102752.03;;;2.58;66.26
66703;BME280;60933;46.398;-63.798;2023-05-23T03:02:37;102741.66;;;2.53;66.65
66703;BME280;60933;46.398;-63.798;2023-05-23T03:05:04;102747.44;;;2.49;66.67
66703;BME280;60933;46.398;-63.798;2023-05-23T03:07:30;102745.50;;;2.43;65.97
66703;BME280;60933;46.398;-63.798;2023-05-23T03:09:59;102746.81;;;2.33;66.44
66703;BME280;60933;46.398;-63.798;2023-05-23T03:12:27;102751.63;;;2.26;66.09
66703;BME280;60933;46.398;-63.798;2023-05-23T03:14:53;102759.97;;;2.23;66.57
66703;BME280;60933;46.398;-63.798;2023-05-23T03:17:20;102756.22;;;2.15;65.93
66703;BME280;60933;46.398;-63.798;2023-05-23T03:19:46;102765.50;;;2.13;65.83
66703;BME280;60933;46.398;-63.798;2023-05-23T03:22:12;102764.50;;;2.09;65.44
66703;BME280;60933;46.398;-63.798;2023-05-23T03:24:38;102756.59;;;2.03;64.27
66703;BME280;60933;46.398;-63.798;2023-05-23T03:27:04;102753.91;;;2.00;63.29
66703;BME280;60933;46.398;-63.798;2023-05-23T03:29:30;102763.97;;;1.97;63.95
66703;BME280;60933;46.398;-63.798;2023-05-23T03:31:57;102761.28;;;1.94;63.14
66703;BME280;60933;46.398;-63.798;2023-05-23T03:34:23;102754.25;;;1.88;63.24
66703;BME280;60933;46.398;-63.798;2023-05-23T03:36:51;102754.03;;;1.83;63.97
66703;BME280;60933;46.398;-63.798;2023-05-23T03:39:17;102751.25;;;1.77;64.07
66703;BME280;60933;46.398;-63.798;2023-05-23T03:41:43;102744.78;;;1.66;64.23
66703;BME280;60933;46.398;-63.798;2023-05-23T03:44:10;102750.72;;;1.65;64.04
66703;BME280;60933;46.398;-63.798;2023-05-23T03:46:36;102755.66;;;1.62;65.18
66703;BME280;60933;46.398;-63.798;2023-05-23T03:49:02;102751.22;;;1.57;65.51
66703;BME280;60933;46.398;-63.798;2023-05-23T03:51:28;102752.75;;;1.54;66.39
66703;BME280;60933;46.398;-63.798;2023-05-23T03:53:54;102755.97;;;1.50;66.62
66703;BME280;60933;46.398;-63.798;2023-05-23T03:56:20;102754.06;;;1.46;66.16
66703;BME280;60933;46.398;-63.798;2023-05-23T03:58:47;102756.44;;;1.41;65.33
66703;BME280;60933;46.398;-63.798;2023-05-23T04:01:13;102749.44;;;1.37;63.47
66703;BME280;60933;46.398;-63.798;2023-05-23T04:03:40;102754.41;;;1.34;63.18
66703;BME280;60933;46.398;-63.798;2023-05-23T04:06:06;102746.56;;;1.29;62.47
66703;BME280;60933;46.398;-63.798;2023-05-23T04:08:32;102757.38;;;1.25;61.37
66703;BME280;60933;46.398;-63.798;2023-05-23T04:11:00;102755.59;;;1.22;60.55
66703;BME280;60933;46.398;-63.798;2023-05-23T04:13:27;102755.44;;;1.19;60.35
66703;BME280;60933;46.398;-63.798;2023-05-23T04:15:53;102752.69;;;1.15;60.68
66703;BME280;60933;46.398;-63.798;2023-05-23T04:18:22;102750.84;;;1.12;59.86
66703;BME280;60933;46.398;-63.798;2023-05-23T04:20:48;102753.19;;;1.07;59.76
66703;BME280;60933;46.398;-63.798;2023-05-23T04:23:14;102757.34;;;1.05;59.98
66703;BME280;60933;46.398;-63.798;2023-05-23T04:25:40;102755.44;;;1.01;59.44
66703;BME280;60933;46.398;-63.798;2023-05-23T04:28:06;102754.31;;;0.94;59.77
66703;BME280;60933;46.398;-63.798;2023-05-23T04:30:35;102754.16;;;0.91;59.46
66703;BME280;60933;46.398;-63.798;2023-05-23T04:33:01;102757.41;;;0.89;59.67
66703;BME280;60933;46.398;-63.798;2023-05-23T04:35:27;102767.44;;;0.86;59.45
66703;BME280;60933;46.398;-63.798;2023-05-23T04:37:56;102768.09;;;0.82;59.51
66703;BME280;60933;46.398;-63.798;2023-05-23T04:40:22;102773.91;;;0.79;63.94
66703;BME280;60933;46.398;-63.798;2023-05-23T04:42:49;102773.75;;;0.76;64.88
66703;BME280;60933;46.398;-63.798;2023-05-23T04:45:18;102770.97;;;0.71;64.73
66703;BME280;60933;46.398;-63.798;2023-05-23T04:47:44;102765.78;;;0.68;62.57
66703;BME280;60933;46.398;-63.798;2023-05-23T04:50:11;102781.66;;;0.64;60.91
66703;BME280;60933;46.398;-63.798;2023-05-23T04:52:39;102763.34;;;0.53;60.87
66703;BME280;60933;46.398;-63.798;2023-05-23T04:55:06;102772.88;;;0.57;64.57
66703;BME280;60933;46.398;-63.798;2023-05-23T04:57:36;102768.34;;;0.52;65.20
66703;BME280;60933;46.398;-63.798;2023-05-23T05:00:03;102776.59;;;0.47;63.23
66703;BME280;60933;46.398;-63.798;2023-05-23T05:02:40;102774.56;;;0.40;62.44
66703;BME280;60933;46.398;-63.798;2023-05-23T05:05:06;102782.13;;;0.39;61.98
66703;BME280;60933;46.398;-63.798;2023-05-23T05:07:32;102762.91;;;0.27;61.35
66703;BME280;60933;46.398;-63.798;2023-05-23T05:10:00;102780.91;;;0.32;62.39
66703;BME280;60933;46.398;-63.798;2023-05-23T05:12:27;102784.25;;;0.31;60.87
66703;BME280;60933;46.398;-63.798;2023-05-23T05:14:53;102780.47;;;0.23;62.28
66703;BME280;60933;46.398;-63.798;2023-05-23T05:17:19;102782.91;;;0.21;64.02
66703;BME280;60933;46.398;-63.798;2023-05-23T05:19:45;102786.50;;;0.25;67.46
66703;BME280;60933;46.398;-63.798;2023-05-23T05:22:11;102786.25;;;0.20;67.57
66703;BME280;60933;46.398;-63.798;2023-05-23T05:24:37;102778.25;;;0.12;65.94
66703;BME280;60933;46.398;-63.798;2023-05-23T05:27:05;102780.38;;;0.05;64.18
66703;BME280;60933;46.398;-63.798;2023-05-23T05:29:31;102784.59;;;0.04;63.02
66703;BME280;60933;46.398;-63.798;2023-05-23T05:31:58;102791.25;;;0.02;64.34
66703;BME280;60933;46.398;-63.798;2023-05-23T05:34:26;102792.88;;;0.00;64.89
66703;BME280;60933;46.398;-63.798;2023-05-23T05:36:52;102791.81;;;-0.04;63.59
66703;BME280;60933;46.398;-63.798;2023-05-23T05:39:23;102795.84;;;-0.07;62.50
66703;BME280;60933;46.398;-63.798;2023-05-23T05:41:50;102787.31;;;-0.09;64.15
66703;BME280;60933;46.398;-63.798;2023-05-23T05:44:16;102788.97;;;-0.10;64.00
66703;BME280;60933;46.398;-63.798;2023-05-23T05:46:43;102789.69;;;-0.12;64.56
66703;BME280;60933;46.398;-63.798;2023-05-23T05:49:09;102787.84;;;-0.15;63.07
66703;BME280;60933;46.398;-63.798;2023-05-23T05:51:35;102786.81;;;-0.19;62.07
66703;BME280;60933;46.398;-63.798;2023-05-23T05:54:01;102786.66;;;-0.22;62.75
66703;BME280;60933;46.398;-63.798;2023-05-23T05:56:27;102766.81;;;-0.29;62.10
66703;BME280;60933;46.398;-63.798;2023-05-23T05:58:53;102783.06;;;-0.25;63.46
66703;BME280;60933;46.398;-63.798;2023-05-23T06:01:19;102790.63;;;-0.27;63.36
66703;BME280;60933;46.398;-63.798;2023-05-23T06:03:45;102793.81;;;-0.31;61.82
66703;BME280;60933;46.398;-63.798;2023-05-23T06:06:12;102791.09;;;-0.34;61.72
66703;BME280;60933;46.398;-63.798;2023-05-23T06:08:39;102784.25;;;-0.35;64.77
66703;BME280;60933;46.398;-63.798;2023-05-23T06:11:06;102786.34;;;-0.28;69.50
66703;BME280;60933;46.398;-63.798;2023-05-23T06:13:32;102789.84;;;-0.26;68.60
66703;BME280;60933;46.398;-63.798;2023-05-23T06:15:58;102802.28;;;-0.30;66.17
66703;BME280;60933;46.398;-63.798;2023-05-23T06:18:24;102796.88;;;-0.37;65.20
66703;BME280;60933;46.398;-63.798;2023-05-23T06:20:50;102801.78;;;-0.40;65.39
66703;BME280;60933;46.398;-63.798;2023-05-23T06:23:17;102794.25;;;-0.38;68.52
66703;BME280;60933;46.398;-63.798;2023-05-23T06:25:43;102797.59;;;-0.39;67.52
66703;BME280;60933;46.398;-63.798;2023-05-23T06:28:09;102806.72;;;-0.43;67.39
66703;BME280;60933;46.398;-63.798;2023-05-23T06:30:35;102818.25;;;-0.48;65.19
66703;BME280;60933;46.398;-63.798;2023-05-23T06:33:03;102805.00;;;-0.59;64.37
66703;BME280;60933;46.398;-63.798;2023-05-23T06:35:29;102807.59;;;-0.57;64.77
66703;BME280;60933;46.398;-63.798;2023-05-23T06:37:55;102818.63;;;-0.57;67.97
66703;BME280;60933;46.398;-63.798;2023-05-23T06:40:21;102819.44;;;-0.58;67.42
66703;BME280;60933;46.398;-63.798;2023-05-23T06:42:47;102824.25;;;-0.62;64.63
66703;BME280;60933;46.398;-63.798;2023-05-23T06:45:13;102829.16;;;-0.66;64.56
66703;BME280;60933;46.398;-63.798;2023-05-23T06:47:40;102826.63;;;-0.66;66.68
66703;BME280;60933;46.398;-63.798;2023-05-23T06:50:10;102831.59;;;-0.67;67.11
66703;BME280;60933;46.398;-63.798;2023-05-23T06:52:36;102825.59;;;-0.69;66.23
66703;BME280;60933;46.398;-63.798;2023-05-23T06:55:02;102827.94;;;-0.72;64.88
66703;BME280;60933;46.398;-63.798;2023-05-23T06:57:29;102839.06;;;-0.70;64.08
66703;BME280;60933;46.398;-63.798;2023-05-23T06:59:55;102836.34;;;-0.73;63.16
66703;BME280;60933;46.398;-63.798;2023-05-23T07:02:21;102846.47;;;-0.73;65.87
66703;BME280;60933;46.398;-63.798;2023-05-23T07:04:47;102843.16;;;-0.72;66.27
66703;BME280;60933;46.398;-63.798;2023-05-23T07:07:13;102847.16;;;-0.61;70.29
66703;BME280;60933;46.398;-63.798;2023-05-23T07:09:40;102846.53;;;-0.57;72.08
66703;BME280;60933;46.398;-63.798;2023-05-23T07:12:06;102850.06;;;-0.55;71.23
66703;BME280;60933;46.398;-63.798;2023-05-23T07:14:32;102841.53;;;-0.55;73.68
66703;BME280;60933;46.398;-63.798;2023-05-23T07:17:00;102837.19;;;-0.58;74.14
66703;BME280;60933;46.398;-63.798;2023-05-23T07:19:26;102847.97;;;-0.62;73.12
66703;BME280;60933;46.398;-63.798;2023-05-23T07:21:52;102847.00;;;-0.64;74.00
66703;BME280;60933;46.398;-63.798;2023-05-23T07:24:18;102850.84;;;-0.56;77.47
66703;BME280;60933;46.398;-63.798;2023-05-23T07:26:44;102853.25;;;-0.57;77.64
66703;BME280;60933;46.398;-63.798;2023-05-23T07:29:10;102848.75;;;-0.63;75.84
66703;BME280;60933;46.398;-63.798;2023-05-23T07:31:36;102847.53;;;-0.70;75.37
66703;BME280;60933;46.398;-63.798;2023-05-23T07:34:02;102851.88;;;-0.67;76.40
66703;BME280;60933;46.398;-63.798;2023-05-23T07:36:28;102856.81;;;-0.70;74.72
66703;BME280;60933;46.398;-63.798;2023-05-23T07:38:58;102845.19;;;-0.82;73.25
66703;BME280;60933;46.398;-63.798;2023-05-23T07:41:25;102850.31;;;-0.80;74.68
66703;BME280;60933;46.398;-63.798;2023-05-23T07:43:51;102845.81;;;-0.86;72.31
66703;BME280;60933;46.398;-63.798;2023-05-23T07:46:17;102848.09;;;-0.90;71.18
66703;BME280;60933;46.398;-63.798;2023-05-23T07:48:44;102847.81;;;-0.95;69.37
66703;BME280;60933;46.398;-63.798;2023-05-23T07:51:10;102850.34;;;-0.95;70.47
66703;BME280;60933;46.398;-63.798;2023-05-23T07:53:36;102854.53;;;-0.96;70.69
66703;BME280;60933;46.398;-63.798;2023-05-23T07:56:07;102855.34;;;-0.97;69.83
66703;BME280;60933;46.398;-63.798;2023-05-23T07:58:33;102859.25;;;-1.02;68.74
66703;BME280;60933;46.398;-63.798;2023-05-23T08:00:59;102863.47;;;-1.02;70.05
66703;BME280;60933;46.398;-63.798;2023-05-23T08:03:25;102866.78;;;-1.03;69.89
66703;BME280;60933;46.398;-63.798;2023-05-23T08:05:51;102865.66;;;-1.08;69.93
66703;BME280;60933;46.398;-63.798;2023-05-23T08:08:17;102863.72;;;-1.13;69.70
66703;BME280;60933;46.398;-63.798;2023-05-23T08:10:43;102859.28;;;-1.17;67.27
66703;BME280;60933;46.398;-63.798;2023-05-23T08:13:10;102862.31;;;-1.22;66.18
66703;BME280;60933;46.398;-63.798;2023-05-23T08:15:36;102864.66;;;-1.25;66.60
66703;BME280;60933;46.398;-63.798;2023-05-23T08:18:03;102869.66;;;-1.27;65.66
66703;BME280;60933;46.398;-63.798;2023-05-23T08:20:29;102872.00;;;-1.30;64.88
66703;BME280;60933;46.398;-63.798;2023-05-23T08:22:57;102868.53;;;-1.32;65.80
66703;BME280;60933;46.398;-63.798;2023-05-23T08:25:24;102871.13;;;-1.31;66.56
66703;BME280;60933;46.398;-63.798;2023-05-23T08:27:50;102871.06;;;-1.32;67.43
66703;BME280;60933;46.398;-63.798;2023-05-23T08:30:16;102875.16;;;-1.34;66.77
66703;BME280;60933;46.398;-63.798;2023-05-23T08:32:43;102873.59;;;-1.32;68.13
66703;BME280;60933;46.398;-63.798;2023-05-23T08:35:08;102874.38;;;-1.33;69.00
66703;BME280;60933;46.398;-63.798;2023-05-23T08:37:34;102875.94;;;-1.35;68.20
66703;BME280;60933;46.398;-63.798;2023-05-23T08:40:00;102871.47;;;-1.39;67.40
66703;BME280;60933;46.398;-63.798;2023-05-23T08:42:27;102873.03;;;-1.41;66.27
66703;BME280;60933;46.398;-63.798;2023-05-23T08:44:53;102878.13;;;-1.41;66.25
66703;BME280;60933;46.398;-63.798;2023-05-23T08:47:19;102875.50;;;-1.43;65.78
66703;BME280;60933;46.398;-63.798;2023-05-23T08:49:46;102873.75;;;-1.44;65.67
66703;BME280;60933;46.398;-63.798;2023-05-23T08:52:17;102878.81;;;-1.44;66.13
66703;BME280;60933;46.398;-63.798;2023-05-23T08:54:47;102879.66;;;-1.44;67.20
66703;BME280;60933;46.398;-63.798;2023-05-23T08:57:13;102885.53;;;-1.45;66.45
66703;BME280;60933;46.398;-63.798;2023-05-23T08:59:40;102885.53;;;-1.45;65.27
66703;BME280;60933;46.398;-63.798;2023-05-23T09:02:09;102883.09;;;-1.43;64.52
66703;BME280;60933;46.398;-63.798;2023-05-23T09:04:38;102878.03;;;-1.43;66.30
66703;BME280;60933;46.398;-63.798;2023-05-23T09:07:05;102880.66;;;-1.41;65.06
66703;BME280;60933;46.398;-63.798;2023-05-23T09:09:31;102884.03;;;-1.41;64.22
66703;BME280;60933;46.398;-63.798;2023-05-23T09:11:58;102887.53;;;-1.39;63.68
66703;BME280;60933;46.398;-63.798;2023-05-23T09:14:25;102890.16;;;-1.37;63.85
66703;BME280;60933;46.398;-63.798;2023-05-23T09:16:59;102894.56;;;-1.35;62.74
66703;BME280;60933;46.398;-63.798;2023-05-23T09:19:26;102895.63;;;-1.31;62.50
66703;BME280;60933;46.398;-63.798;2023-05-23T09:21:53;102896.66;;;-1.28;62.50
66703;BME280;60933;46.398;-63.798;2023-05-23T09:24:20;102904.53;;;-1.23;62.63
66703;BME280;60933;46.398;-63.798;2023-05-23T09:26:47;102906.38;;;-1.20;61.88
66703;BME280;60933;46.398;-63.798;2023-05-23T09:29:18;102910.06;;;-1.15;62.48
66703;BME280;60933;46.398;-63.798;2023-05-23T09:31:46;102906.91;;;-1.11;62.38
66703;BME280;60933;46.398;-63.798;2023-05-23T09:34:12;102915.75;;;-1.04;61.90
66703;BME280;60933;46.398;-63.798;2023-05-23T09:36:40;102918.53;;;-1.00;62.08
66703;BME280;60933;46.398;-63.798;2023-05-23T09:39:10;102915.38;;;-0.96;61.35
66703;BME280;60933;46.398;-63.798;2023-05-23T09:41:37;102917.59;;;-0.87;60.98
66703;BME280;60933;46.398;-63.798;2023-05-23T09:44:07;102924.84;;;-0.78;62.06
66703;BME280;60933;46.398;-63.798;2023-05-23T09:46:35;102927.06;;;-0.69;61.83
66703;BME280;60933;46.398;-63.798;2023-05-23T09:49:14;102930.09;;;-0.60;61.67
66703;BME280;60933;46.398;-63.798;2023-05-23T09:51:41;102924.66;;;-0.51;61.28
66703;BME280;60933;46.398;-63.798;2023-05-23T09:54:07;102929.44;;;-0.41;60.69
66703;BME280;60933;46.398;-63.798;2023-05-23T09:56:36;102931.78;;;-0.29;61.71
66703;BME280;60933;46.398;-63.798;2023-05-23T09:59:07;102935.94;;;0.01;70.01
66703;BME280;60933;46.398;-63.798;2023-05-23T10:01:35;102937.25;;;0.25;72.04
66703;BME280;60933;46.398;-63.798;2023-05-23T10:04:02;102946.41;;;0.55;76.70
66703;BME280;60933;46.398;-63.798;2023-05-23T10:06:48;102942.69;;;0.65;71.99
66703;BME280;60933;46.398;-63.798;2023-05-23T10:09:20;102941.72;;;0.79;72.37
66703;BME280;60933;46.398;-63.798;2023-05-23T10:12:21;102948.47;;;1.13;79.55
66703;BME280;60933;46.398;-63.798;2023-05-23T10:15:04;102947.09;;;1.36;80.43
66703;BME280;60933;46.398;-63.798;2023-05-23T10:20:24;102945.63;;;1.60;77.60
66703;BME280;60933;46.398;-63.798;2023-05-23T10:22:51;102943.31;;;1.64;74.19
66703;BME280;60933;46.398;-63.798;2023-05-23T10:25:18;102941.56;;;1.81;77.77
66703;BME280;60933;46.398;-63.798;2023-05-23T10:27:45;102948.00;;;2.11;79.90
66703;BME280;60933;46.398;-63.798;2023-05-23T10:30:14;102951.59;;;2.34;81.76
66703;BME280;60933;46.398;-63.798;2023-05-23T10:32:41;102946.38;;;2.50;82.30
66703;BME280;60933;46.398;-63.798;2023-05-23T10:44:16;102962.28;;;3.25;82.34
66703;BME280;60933;46.398;-63.798;2023-05-23T10:46:56;102968.19;;;3.45;82.06
66703;BME280;60933;46.398;-63.798;2023-05-23T10:49:41;102970.44;;;3.58;81.85
66703;BME280;60933;46.398;-63.798;2023-05-23T10:52:09;102967.56;;;3.72;81.16
66703;BME280;60933;46.398;-63.798;2023-05-23T10:54:48;102980.13;;;3.88;80.79
66703;BME280;60933;46.398;-63.798;2023-05-23T10:57:16;102975.56;;;4.02;80.43
66703;BME280;60933;46.398;-63.798;2023-05-23T10:59:44;102977.66;;;4.14;79.88
66703;BME280;60933;46.398;-63.798;2023-05-23T11:02:13;102989.38;;;4.30;79.30
66703;BME280;60933;46.398;-63.798;2023-05-23T11:04:42;102986.38;;;4.42;78.98
66703;BME280;60933;46.398;-63.798;2023-05-23T11:07:28;102993.72;;;4.57;78.70
66703;BME280;60933;46.398;-63.798;2023-05-23T11:10:08;102999.97;;;4.64;77.71
66703;BME280;60933;46.398;-63.798;2023-05-23T11:12:42;102996.97;;;4.75;76.37
66703;BME280;60933;46.398;-63.798;2023-05-23T11:15:19;102982.94;;;4.88;75.86
66703;BME280;60933;46.398;-63.798;2023-05-23T11:20:18;102970.75;;;5.07;73.16
66703;BME280;60933;46.398;-63.798;2023-05-23T11:23:00;102981.56;;;5.24;72.08
66703;BME280;60933;46.398;-63.798;2023-05-23T11:25:43;102987.13;;;5.38;71.83
66703;BME280;60933;46.398;-63.798;2023-05-23T11:28:11;102980.69;;;5.49;70.54
66703;BME280;60933;46.398;-63.798;2023-05-23T11:30:38;102984.41;;;5.59;68.53
66703;BME280;60933;46.398;-63.798;2023-05-23T11:33:12;102979.53;;;5.67;67.19
66703;BME280;60933;46.398;-63.798;2023-05-23T11:35:39;102978.97;;;5.77;67.09
66703;BME280;60933;46.398;-63.798;2023-05-23T11:38:06;102974.03;;;5.83;65.73
66703;BME280;60933;46.398;-63.798;2023-05-23T11:40:37;102977.63;;;5.89;63.19
66703;BME280;60933;46.398;-63.798;2023-05-23T11:43:11;102973.59;;;5.97;63.07
66703;BME280;60933;46.398;-63.798;2023-05-23T11:45:38;102966.06;;;6.01;61.01
66703;BME280;60933;46.398;-63.798;2023-05-23T11:48:10;102962.97;;;6.12;61.00
66703;BME280;60933;46.398;-63.798;2023-05-23T11:51:03;102974.44;;;6.25;59.18
66703;BME280;60933;46.398;-63.798;2023-05-23T11:53:29;102973.03;;;6.36;59.72
66703;BME280;60933;46.398;-63.798;2023-05-23T11:55:57;102975.81;;;6.42;58.33
66703;BME280;60933;46.398;-63.798;2023-05-23T11:58:33;102974.38;;;6.52;56.79
66703;BME280;60933;46.398;-63.798;2023-05-23T12:01:05;102977.22;;;6.63;55.12
66703;BME280;60933;46.398;-63.798;2023-05-23T12:03:34;102982.69;;;6.75;56.64
66703;BME280;60933;46.398;-63.798;2023-05-23T12:06:00;102990.78;;;6.89;56.27
66703;BME280;60933;46.398;-63.798;2023-05-23T12:08:29;102993.63;;;7.00;55.62
66703;BME280;60933;46.398;-63.798;2023-05-23T12:10:59;102986.94;;;7.07;55.89
66703;BME280;60933;46.398;-63.798;2023-05-23T12:13:28;102995.09;;;7.24;55.96
66703;BME280;60933;46.398;-63.798;2023-05-23T12:16:03;102992.59;;;7.27;55.40
66703;BME280;60933;46.398;-63.798;2023-05-23T12:18:31;102990.19;;;7.33;54.21
66703;BME280;60933;46.398;-63.798;2023-05-23T12:21:05;102988.69;;;7.43;53.42
66703;BME280;60933;46.398;-63.798;2023-05-23T12:23:33;102985.44;;;7.50;55.57
66703;BME280;60933;46.398;-63.798;2023-05-23T12:26:03;102979.81;;;7.65;56.16
66703;BME280;60933;46.398;-63.798;2023-05-23T12:28:41;102992.97;;;7.79;55.65
66703;BME280;60933;46.398;-63.798;2023-05-23T12:31:20;102983.78;;;7.89;56.14
66703;BME280;60933;46.398;-63.798;2023-05-23T12:33:47;102984.03;;;8.01;55.40
66703;BME280;60933;46.398;-63.798;2023-05-23T12:36:15;102979.25;;;8.18;54.99
66703;BME280;60933;46.398;-63.798;2023-05-23T12:38:46;102984.81;;;8.38;54.62
66703;BME280;60933;46.398;-63.798;2023-05-23T12:41:17;102980.84;;;8.54;53.62
66703;BME280;60933;46.398;-63.798;2023-05-23T12:43:54;102983.78;;;8.73;52.99
66703;BME280;60933;46.398;-63.798;2023-05-23T12:46:25;102985.81;;;8.88;52.69
66703;BME280;60933;46.398;-63.798;2023-05-23T12:48:52;102981.53;;;8.90;52.34
66703;BME280;60933;46.398;-63.798;2023-05-23T12:51:19;102986.00;;;8.99;51.90
66703;BME280;60933;46.398;-63.798;2023-05-23T12:53:45;102993.09;;;9.14;53.55
66703;BME280;60933;46.398;-63.798;2023-05-23T12:56:12;102979.56;;;9.27;53.07
66703;BME280;60933;46.398;-63.798;2023-05-23T12:58:38;102984.16;;;9.44;51.55
66703;BME280;60933;46.398;-63.798;2023-05-23T13:01:04;102985.34;;;9.64;53.39
66703;BME280;60933;46.398;-63.798;2023-05-23T13:03:31;102982.03;;;9.75;50.81